createdAt,value
2023-02-13T00:02:49.883Z,-1.23
2023-02-13T00:05:59.058Z,-1.29
2023-02-13T00:09:16.065Z,-1.26
2023-02-13T00:12:26.770Z,-1.31
2023-02-13T00:15:33.362Z,-1.37
2023-02-13T00:18:43.129Z,-1.36
2023-02-13T00:21:51.310Z,-1.43
2023-02-13T00:25:06.095Z,-1.54
2023-02-13T00:28:13.554Z,-1.65
2023-02-13T00:31:23.576Z,-1.65
2023-02-13T00:34:29.576Z,-1.69
2023-02-13T00:37:38.285Z,-1.69
2023-02-13T00:40:46.350Z,-1.73
2023-02-13T00:43:56.923Z,-1.75
2023-02-13T00:47:12.399Z,-1.84
2023-02-13T00:50:23.654Z,-1.86
2023-02-13T00:53:29.504Z,-1.76
2023-02-13T00:56:40.054Z,-1.69
2023-02-13T00:59:47.559Z,-1.74
2023-02-13T01:03:02.668Z,-1.77
2023-02-13T01:06:10.903Z,-1.95
2023-02-13T01:09:24.916Z,-2.05
2023-02-13T01:12:31.284Z,-2.08
2023-02-13T01:15:44.303Z,-2.10
2023-02-13T01:18:55.412Z,-2.11
2023-02-13T01:22:06.750Z,-2.10
2023-02-13T01:25:16.574Z,-2.11
2023-02-13T01:28:25.486Z,-2.13
2023-02-13T01:31:37.677Z,-2.21
2023-02-13T01:34:46.396Z,-2.27
2023-02-13T01:37:59.736Z,-2.33
2023-02-13T01:41:09.629Z,-2.34
2023-02-13T01:44:35.372Z,-2.25
2023-02-13T01:47:51.542Z,-2.24
2023-02-13T01:51:02.077Z,-2.30
2023-02-13T01:54:13.441Z,-2.27
2023-02-13T01:57:23.880Z,-2.35
2023-02-13T02:00:31.355Z,-2.42
2023-02-13T02:03:42.882Z,-2.45
2023-02-13T02:07:00.203Z,-2.46
2023-02-13T02:10:11.177Z,-2.55
2023-02-13T02:13:21.654Z,-2.56
2023-02-13T02:16:29.720Z,-2.30
2023-02-13T02:19:43.468Z,-2.22
2023-02-13T02:23:12.002Z,-2.25
2023-02-13T02:26:39.128Z,-2.20
2023-02-13T02:29:54.714Z,-2.32
2023-02-13T02:33:18.928Z,-2.41
2023-02-13T02:36:47.742Z,-2.54
2023-02-13T02:40:15.109Z,-2.58
2023-02-13T02:43:28.614Z,-2.61
2023-02-13T02:47:23.558Z,-2.63
2023-02-13T02:50:36.798Z,-2.67
2023-02-13T02:53:47.079Z,-2.71
2023-02-13T02:56:58.681Z,-2.77
2023-02-13T03:00:26.038Z,-2.80
2023-02-13T03:04:10.970Z,-2.84
2023-02-13T03:07:23.255Z,-2.81
2023-02-13T03:10:51.881Z,-2.85
2023-02-13T03:14:04.222Z,-2.86
2023-02-13T03:17:32.206Z,-2.90
2023-02-13T03:21:06.453Z,-3.00
2023-02-13T03:24:23.615Z,-3.02
2023-02-13T03:27:52.979Z,-2.99
2023-02-13T03:31:19.205Z,-3.02
2023-02-13T03:34:47.995Z,-3.01
2023-02-13T03:38:00.117Z,-3.01
2023-02-13T03:41:23.580Z,-3.03
2023-02-13T03:44:36.592Z,-3.06
2023-02-13T03:47:50.176Z,-3.03
2023-02-13T03:51:00.484Z,-2.78
2023-02-13T03:54:17.360Z,-2.78
2023-02-13T03:57:46.976Z,-2.72
2023-02-13T04:01:00.442Z,-2.82
2023-02-13T04:04:17.789Z,-2.74
2023-02-13T04:07:37.159Z,-2.80
2023-02-13T04:10:56.617Z,-2.80
2023-02-13T04:14:09.503Z,-2.80
2023-02-13T04:17:26.052Z,-2.81
2023-02-13T04:20:35.594Z,-2.79
2023-02-13T04:23:47.214Z,-3.01
2023-02-13T04:26:56.772Z,-3.09
2023-02-13T04:30:02.715Z,-3.16
2023-02-13T04:33:13.047Z,-3.02
2023-02-13T04:36:21.499Z,-3.11
2023-02-13T04:39:29.743Z,-3.15
2023-02-13T04:42:39.148Z,-3.23
2023-02-13T04:45:48.342Z,-3.30
2023-02-13T04:48:56.820Z,-3.29
2023-02-13T04:52:02.210Z,-3.32
2023-02-13T04:55:07.947Z,-3.31
2023-02-13T04:58:14.448Z,-3.32
2023-02-13T05:01:20.376Z,-3.34
2023-02-13T05:04:30.601Z,-3.39
2023-02-13T05:07:37.978Z,-3.47
2023-02-13T05:10:44.577Z,-3.50
2023-02-13T05:13:51.088Z,-3.51
2023-02-13T05:17:00.191Z,-3.52
2023-02-13T05:20:12.083Z,-3.53
2023-02-13T05:23:26.432Z,-3.54
2023-02-13T05:26:34.680Z,-3.48
2023-02-13T05:29:42.831Z,-3.55
2023-02-13T05:32:53.312Z,-3.58
2023-02-13T05:36:00.112Z,-3.57
2023-02-13T05:39:07.207Z,-3.57
2023-02-13T05:42:13.807Z,-3.60
2023-02-13T05:45:19.075Z,-3.65
2023-02-13T05:48:26.006Z,-3.58
2023-02-13T05:51:32.706Z,-3.33
2023-02-13T05:54:39.044Z,-3.41
2023-02-13T05:57:44.406Z,-3.46
2023-02-13T06:00:49.772Z,-3.51
2023-02-13T06:03:58.458Z,-3.42
2023-02-13T06:07:05.077Z,-3.28
2023-02-13T06:10:10.619Z,-3.02
2023-02-13T06:13:15.423Z,-2.77
2023-02-13T06:16:20.646Z,-2.60
2023-02-13T06:19:26.929Z,-2.58
2023-02-13T06:22:31.967Z,-2.65
2023-02-13T06:25:39.078Z,-2.68
2023-02-13T06:28:44.283Z,-2.87
2023-02-13T06:31:49.008Z,-2.88
2023-02-13T06:34:54.176Z,-2.90
2023-02-13T06:37:59.838Z,-2.93
2023-02-13T06:41:03.664Z,-2.93
2023-02-13T06:44:08.608Z,-2.89
2023-02-13T06:47:15.650Z,-2.86
2023-02-13T06:50:19.994Z,-2.87
2023-02-13T06:53:30.426Z,-2.74
2023-02-13T06:56:34.732Z,-2.60
2023-02-13T06:59:40.059Z,-2.49
2023-02-13T07:02:44.830Z,-2.25
2023-02-13T07:05:52.873Z,-2.27
2023-02-13T07:08:57.593Z,-2.31
2023-02-13T07:12:06.183Z,-2.28
2023-02-13T07:15:11.524Z,-2.17
2023-02-13T07:18:15.752Z,-2.11
2023-02-13T07:21:21.270Z,-2.06
2023-02-13T07:24:27.460Z,-1.98
2023-02-13T07:27:32.111Z,-1.86
2023-02-13T07:30:37.745Z,-1.73
2023-02-13T07:33:42.011Z,-1.54
2023-02-13T07:36:49.423Z,-1.38
2023-02-13T07:39:53.701Z,-1.45
2023-02-13T07:43:00.989Z,-1.32
2023-02-13T07:46:07.616Z,-0.73
2023-02-13T07:49:12.594Z,-0.97
2023-02-13T07:52:18.436Z,-1.15
2023-02-13T07:55:27.312Z,-1.16
2023-02-13T07:58:33.538Z,-1.01
2023-02-13T08:01:38.248Z,-0.87
2023-02-13T08:04:47.086Z,-0.82
2023-02-13T08:07:51.350Z,-0.57
2023-02-13T08:11:15.250Z,-0.54
2023-02-13T08:14:19.400Z,-0.53
2023-02-13T08:17:23.709Z,-0.46
2023-02-13T08:20:27.790Z,0.18
2023-02-13T08:23:34.277Z,1.70
2023-02-13T08:26:38.304Z,4.39
2023-02-13T08:29:43.137Z,7.12
2023-02-13T08:32:54.106Z,9.38
2023-02-13T08:35:57.912Z,10.76
2023-02-13T08:39:01.452Z,12.36
2023-02-13T08:42:06.044Z,12.59
2023-02-13T08:45:14.443Z,7.66
2023-02-13T08:48:17.871Z,4.76
2023-02-13T08:51:21.600Z,3.86
2023-02-13T08:54:28.484Z,3.02
2023-02-13T08:57:33.130Z,2.37
2023-02-13T09:00:37.802Z,2.16
2023-02-13T09:03:41.550Z,2.25
2023-02-13T09:06:48.445Z,2.11
2023-02-13T09:09:52.511Z,2.23
2023-02-13T09:12:56.196Z,2.34
2023-02-13T09:16:01.680Z,2.25
2023-02-13T09:19:07.390Z,2.13
2023-02-13T09:22:12.721Z,2.15
2023-02-13T09:25:20.978Z,2.14
2023-02-13T09:28:24.876Z,2.09
2023-02-13T09:31:30.432Z,2.00
2023-02-13T09:34:33.592Z,2.13
2023-02-13T09:37:37.829Z,2.36
2023-02-13T09:40:56.393Z,2.40
2023-02-13T09:44:03.768Z,2.46
2023-02-13T09:47:11.538Z,2.51
2023-02-13T09:50:20.594Z,2.66
2023-02-13T09:53:25.894Z,2.75
2023-02-13T09:56:50.930Z,2.80
2023-02-13T10:00:17.303Z,2.93
2023-02-13T10:03:27.653Z,3.01
2023-02-13T10:06:37.117Z,3.02
2023-02-13T10:09:48.416Z,3.17
2023-02-13T10:13:02.864Z,3.42
2023-02-13T10:16:06.669Z,3.42
2023-02-13T10:19:16.490Z,3.54
2023-02-13T10:22:27.719Z,3.63
2023-02-13T10:25:36.149Z,3.74
2023-02-13T10:28:40.907Z,3.77
2023-02-13T10:31:46.286Z,3.84
2023-02-13T10:34:51.421Z,3.96
2023-02-13T10:37:56.954Z,4.04
2023-02-13T10:41:05.817Z,4.22
2023-02-13T10:44:13.193Z,4.37
2023-02-13T10:47:35.744Z,4.51
2023-02-13T10:50:51.593Z,4.67
2023-02-13T10:54:08.780Z,4.70
2023-02-13T10:57:16.285Z,4.78
2023-02-13T11:00:26.569Z,4.96
2023-02-13T11:03:30.466Z,5.21
2023-02-13T11:06:38.972Z,5.24
2023-02-13T11:09:44.770Z,5.22
2023-02-13T11:12:49.451Z,5.48
2023-02-13T11:16:05.731Z,5.50
2023-02-13T11:19:21.879Z,5.68
2023-02-13T11:22:35.602Z,5.74
2023-02-13T11:25:40.888Z,5.84
2023-02-13T11:28:50.628Z,5.94
2023-02-13T11:32:13.646Z,6.07
2023-02-13T11:35:38.553Z,6.67
2023-02-13T11:38:42.737Z,9.52
2023-02-13T11:41:47.291Z,13.23
2023-02-13T11:44:55.236Z,13.12
2023-02-13T11:47:59.339Z,16.02
2023-02-13T11:51:04.388Z,16.87
2023-02-13T11:54:28.722Z,16.18
2023-02-13T11:57:35.870Z,20.15
2023-02-13T12:00:41.783Z,21.56
2023-02-13T12:04:06.789Z,17.77
2023-02-13T12:07:19.839Z,18.92
2023-02-13T12:10:25.535Z,19.74
2023-02-13T12:13:35.641Z,21.44
2023-02-13T12:16:51.064Z,21.67
2023-02-13T12:19:56.117Z,23.82
2023-02-13T12:23:00.161Z,19.13
2023-02-13T12:26:10.205Z,23.38
2023-02-13T12:29:23.964Z,22.51
2023-02-13T12:32:27.491Z,22.09
2023-02-13T12:35:30.889Z,20.24
2023-02-13T12:38:49.877Z,19.67
2023-02-13T12:42:12.767Z,21.60
2023-02-13T12:45:29.858Z,21.41
2023-02-13T12:48:43.977Z,18.49
2023-02-13T12:52:05.391Z,18.68
2023-02-13T12:55:15.735Z,15.82
2023-02-13T12:58:32.366Z,15.42
2023-02-13T13:01:52.211Z,14.67
2023-02-13T13:05:17.584Z,15.08
2023-02-13T13:08:28.775Z,15.05
2023-02-13T13:11:49.609Z,14.18
2023-02-13T13:14:56.274Z,13.61
2023-02-13T13:18:23.848Z,13.08
2023-02-13T13:21:40.025Z,11.97
2023-02-13T13:25:04.640Z,11.87
2023-02-13T13:28:15.247Z,10.80
2023-02-13T13:31:20.202Z,11.13
2023-02-13T13:34:25.778Z,12.14
2023-02-13T13:37:33.124Z,11.58
2023-02-13T13:40:37.280Z,11.56
2023-02-13T13:43:44.051Z,11.05
2023-02-13T13:47:10.399Z,11.49
2023-02-13T13:50:25.730Z,10.86
2023-02-13T13:53:30.217Z,10.35
2023-02-13T13:56:53.413Z,9.39
2023-02-13T13:59:59.594Z,9.21
2023-02-13T14:03:21.661Z,9.43
2023-02-13T14:06:50.519Z,9.09
2023-02-13T14:09:55.913Z,8.51
2023-02-13T14:13:05.517Z,8.30
2023-02-13T14:16:12.092Z,8.01
2023-02-13T14:19:42.708Z,7.62
2023-02-13T14:22:47.206Z,7.73
2023-02-13T14:26:10.744Z,7.72
2023-02-13T14:29:25.103Z,7.53
2023-02-13T14:32:31.892Z,7.56
2023-02-13T14:35:38.585Z,7.39
2023-02-13T14:38:43.580Z,7.39
2023-02-13T14:41:58.574Z,7.22
2023-02-13T14:45:05.167Z,7.12
2023-02-13T14:48:14.574Z,7.09
2023-02-13T14:51:33.676Z,7.11
2023-02-13T14:54:46.476Z,7.08
2023-02-13T14:57:55.279Z,6.94
2023-02-13T15:01:05.215Z,6.88
2023-02-13T15:04:19.280Z,6.82
2023-02-13T15:07:26.186Z,6.79
2023-02-13T15:10:48.728Z,6.67
2023-02-13T15:13:53.344Z,6.74
2023-02-13T15:17:03.654Z,6.63
2023-02-13T15:20:22.438Z,6.67
2023-02-13T15:23:31.197Z,6.52
2023-02-13T15:26:36.497Z,6.48
2023-02-13T15:29:54.064Z,6.52
2023-02-13T15:33:05.993Z,6.57
2023-02-13T15:36:18.943Z,6.49
2023-02-13T15:39:28.743Z,6.50
2023-02-13T15:42:34.341Z,6.30
2023-02-13T15:45:47.604Z,6.29
2023-02-13T15:48:57.822Z,6.12
2023-02-13T15:52:09.384Z,6.00
2023-02-13T15:55:23.047Z,6.03
2023-02-13T15:58:31.595Z,5.97
2023-02-13T16:01:43.470Z,6.01
2023-02-13T16:04:53.052Z,6.04
2023-02-13T16:08:02.448Z,6.12
2023-02-13T16:11:11.782Z,6.05
2023-02-13T16:14:26.201Z,6.14
2023-02-13T16:17:33.539Z,5.94
2023-02-13T16:20:40.706Z,5.87
2023-02-13T16:23:48.763Z,5.77
2023-02-13T16:26:54.788Z,5.68
2023-02-13T16:30:02.899Z,5.53
2023-02-13T16:33:14.903Z,5.43
2023-02-13T16:36:31.018Z,5.32
2023-02-13T16:39:37.052Z,5.14
2023-02-13T16:42:47.829Z,5.26
2023-02-13T16:45:56.221Z,5.10
2023-02-13T16:49:12.062Z,5.06
2023-02-13T16:52:21.971Z,5.06
2023-02-13T16:55:29.347Z,5.19
2023-02-13T16:58:36.802Z,5.18
2023-02-13T17:01:47.581Z,5.23
2023-02-13T17:04:55.800Z,5.42
2023-02-13T17:08:06.108Z,5.42
2023-02-13T17:11:19.981Z,5.39
2023-02-13T17:14:26.737Z,5.51
2023-02-13T17:17:33.959Z,5.48
2023-02-13T17:20:43.682Z,5.49
2023-02-13T17:23:50.288Z,5.46
2023-02-13T17:27:00.267Z,5.34
2023-02-13T17:30:10.727Z,5.62
2023-02-13T17:33:22.465Z,5.61
2023-02-13T17:36:30.269Z,5.55
2023-02-13T17:39:40.948Z,5.45
2023-02-13T17:42:50.275Z,5.42
2023-02-13T17:46:00.113Z,5.30
2023-02-13T17:49:09.281Z,5.13
2023-02-13T17:52:17.644Z,5.00
2023-02-13T17:55:25.424Z,4.84
2023-02-13T17:58:31.313Z,4.74
2023-02-13T18:01:39.146Z,4.51
2023-02-13T18:04:49.155Z,4.23
2023-02-13T18:07:56.434Z,4.09
2023-02-13T18:11:03.845Z,3.85
2023-02-13T18:14:10.951Z,3.59
2023-02-13T18:17:20.525Z,3.44
2023-02-13T18:20:27.200Z,3.36
2023-02-13T18:23:35.504Z,3.26
2023-02-13T18:26:44.758Z,3.15
2023-02-13T18:29:53.467Z,3.12
2023-02-13T18:33:00.918Z,3.00
2023-02-13T18:36:09.571Z,2.90
2023-02-13T18:39:18.077Z,2.85
2023-02-13T18:42:24.899Z,2.83
2023-02-13T18:45:34.415Z,2.85
2023-02-13T18:48:44.588Z,2.74
2023-02-13T18:51:53.567Z,2.75
2023-02-13T18:55:03.971Z,2.85
2023-02-13T18:58:11.596Z,2.77
2023-02-13T19:01:20.256Z,2.73
2023-02-13T19:04:27.023Z,2.76
2023-02-13T19:07:36.601Z,2.70
2023-02-13T19:10:45.230Z,2.64
2023-02-13T19:14:01.181Z,2.60
2023-02-13T19:17:10.701Z,2.57
2023-02-13T19:20:19.581Z,2.55
2023-02-13T19:23:24.151Z,2.55
2023-02-13T19:26:28.751Z,2.65
2023-02-13T19:29:34.459Z,2.77
2023-02-13T19:32:40.208Z,3.06
2023-02-13T19:35:58.419Z,3.31
2023-02-13T19:39:09.316Z,3.49
2023-02-13T19:42:17.757Z,3.43
2023-02-13T19:45:27.194Z,3.55
2023-02-13T19:48:34.132Z,3.50
2023-02-13T19:51:49.538Z,3.32
2023-02-13T19:55:02.274Z,3.16
2023-02-13T19:58:08.504Z,3.10
2023-02-13T20:01:14.331Z,2.91
2023-02-13T20:04:19.515Z,2.91
2023-02-13T20:07:22.895Z,3.06
2023-02-13T20:10:27.090Z,3.04
2023-02-13T20:13:32.333Z,2.88
2023-02-13T20:16:40.041Z,2.81
2023-02-13T20:19:49.682Z,2.71
2023-02-13T20:22:56.197Z,2.52
2023-02-13T20:26:04.946Z,2.45
2023-02-13T20:29:11.565Z,2.56
2023-02-13T20:32:16.874Z,2.60
2023-02-13T20:35:24.794Z,2.57
2023-02-13T20:38:29.466Z,2.41
2023-02-13T20:41:36.005Z,2.69
2023-02-13T20:44:40.800Z,2.66
2023-02-13T20:47:48.619Z,2.56
2023-02-13T20:51:02.583Z,2.62
2023-02-13T20:54:13.617Z,2.56
2023-02-13T20:57:21.312Z,2.60
2023-02-13T21:00:26.671Z,2.68
2023-02-13T21:03:33.003Z,2.64
2023-02-13T21:06:43.266Z,2.69
2023-02-13T21:09:49.291Z,2.77
2023-02-13T21:12:58.519Z,2.60
2023-02-13T21:16:05.450Z,2.51
2023-02-13T21:19:13.957Z,2.58
2023-02-13T21:22:24.890Z,2.47
2023-02-13T21:25:33.424Z,2.35
2023-02-13T21:28:42.864Z,2.56
2023-02-13T21:31:52.697Z,2.77
2023-02-13T21:35:01.182Z,2.75
2023-02-13T21:38:08.776Z,2.81
2023-02-13T21:41:19.052Z,2.86
2023-02-13T21:44:26.741Z,2.90
2023-02-13T21:47:36.468Z,2.92
2023-02-13T21:50:48.074Z,2.96
2023-02-13T21:53:56.830Z,2.95
2023-02-13T21:57:05.438Z,2.87
2023-02-13T22:00:12.276Z,2.69
2023-02-13T22:03:19.960Z,2.56
2023-02-13T22:06:26.015Z,2.73
2023-02-13T22:09:30.234Z,2.71
2023-02-13T22:12:35.377Z,2.76
2023-02-13T22:15:44.210Z,2.52
2023-02-13T22:18:52.770Z,2.40
2023-02-13T22:22:00.306Z,2.48
2023-02-13T22:25:07.016Z,2.72
2023-02-13T22:28:12.554Z,2.95
2023-02-13T22:31:20.032Z,3.03
2023-02-13T22:34:24.553Z,2.94
2023-02-13T22:37:30.622Z,3.04
2023-02-13T22:40:38.009Z,3.08
2023-02-13T22:43:49.064Z,2.91
2023-02-13T22:46:58.122Z,2.83
2023-02-13T22:50:05.236Z,2.88
2023-02-13T22:53:12.156Z,2.71
2023-02-13T22:56:19.643Z,2.66
2023-02-13T22:59:25.628Z,2.53
2023-02-13T23:02:31.697Z,2.35
2023-02-13T23:05:41.939Z,2.24
2023-02-13T23:08:46.649Z,2.24
2023-02-13T23:12:21.965Z,2.19
2023-02-13T23:15:28.569Z,2.07
2023-02-13T23:18:33.770Z,2.01
2023-02-13T23:21:45.496Z,1.85
2023-02-13T23:24:56.058Z,1.95
2023-02-13T23:28:08.893Z,1.98
2023-02-13T23:31:17.944Z,1.87
2023-02-13T23:34:23.828Z,1.73
2023-02-13T23:37:29.653Z,1.68
2023-02-13T23:40:37.924Z,1.72
2023-02-13T23:43:41.798Z,1.71
2023-02-13T23:46:47.815Z,1.96
2023-02-13T23:49:56.402Z,2.04
2023-02-13T23:53:04.206Z,2.07
2023-02-13T23:56:09.750Z,1.92
2023-02-13T23:59:16.176Z,1.84
